sensor_id;sensor_type;location;lat;lon;timestamp;P1;durP1;ratioP1;P2;durP2;ratioP2
25437;SDS011;13364;49.084;9.978;2022-09-03T00:07:35;2.17;;;1.35;;
25437;SDS011;13364;49.084;9.978;2022-09-03T00:10:45;1.40;;;1.30;;
25437;SDS011;13364;49.084;9.978;2022-09-03T00:13:30;2.67;;;1.55;;
25437;SDS011;13364;49.084;9.978;2022-09-03T00:16:06;2.13;;;1.23;;
25437;SDS011;13364;49.084;9.978;2022-09-03T00:18:48;3.45;;;1.20;;
25437;SDS011;13364;49.084;9.978;2022-09-03T00:21:38;2.65;;;1.30;;
25437;SDS011;13364;49.084;9.978;2022-09-03T00:24:18;3.88;;;1.30;;
25437;SDS011;13364;49.084;9.978;2022-09-03T00:26:52;1.77;;;1.55;;
25437;SDS011;13364;49.084;9.978;2022-09-03T00:29:34;2.70;;;1.30;;
25437;SDS011;13364;49.084;9.978;2022-09-03T00:35:25;1.42;;;1.33;;
25437;SDS011;13364;49.084;9.978;2022-09-03T00:38:19;2.47;;;1.27;;
25437;SDS011;13364;49.084;9.978;2022-09-03T00:46:40;1.92;;;1.50;;
25437;SDS011;13364;49.084;9.978;2022-09-03T01:00:25;2.00;;;1.35;;
25437;SDS011;13364;49.084;9.978;2022-09-03T01:03:03;1.60;;;1.50;;
25437;SDS011;13364;49.084;9.978;2022-09-03T01:31:52;2.78;;;1.55;;
25437;SDS011;13364;49.084;9.978;2022-09-03T01:34:34;2.15;;;1.83;;
25437;SDS011;13364;49.084;9.978;2022-09-03T01:40:23;2.95;;;1.75;;
25437;SDS011;13364;49.084;9.978;2022-09-03T01:45:39;1.88;;;1.45;;
25437;SDS011;13364;49.084;9.978;2022-09-03T01:48:28;1.75;;;1.65;;
25437;SDS011;13364;49.084;9.978;2022-09-03T01:51:17;2.55;;;1.90;;
25437;SDS011;13364;49.084;9.978;2022-09-03T01:57:01;3.60;;;1.77;;
25437;SDS011;13364;49.084;9.978;2022-09-03T02:00:15;3.75;;;1.60;;
25437;SDS011;13364;49.084;9.978;2022-09-03T02:02:47;4.25;;;1.90;;
25437;SDS011;13364;49.084;9.978;2022-09-03T02:05:18;2.10;;;1.60;;
25437;SDS011;13364;49.084;9.978;2022-09-03T02:10:25;2.00;;;1.58;;
25437;SDS011;13364;49.084;9.978;2022-09-03T02:15:42;2.42;;;1.80;;
25437;SDS011;13364;49.084;9.978;2022-09-03T02:18:23;3.95;;;1.88;;
25437;SDS011;13364;49.084;9.978;2022-09-03T02:20:55;3.97;;;1.88;;
25437;SDS011;13364;49.084;9.978;2022-09-03T02:23:24;5.85;;;1.67;;
25437;SDS011;13364;49.084;9.978;2022-09-03T02:25:58;2.42;;;1.92;;
25437;SDS011;13364;49.084;9.978;2022-09-03T02:28:28;3.15;;;2.10;;
25437;SDS011;13364;49.084;9.978;2022-09-03T02:33:24;2.65;;;2.08;;
25437;SDS011;13364;49.084;9.978;2022-09-03T02:35:52;2.92;;;2.10;;
25437;SDS011;13364;49.084;9.978;2022-09-03T02:38:22;2.28;;;1.58;;
25437;SDS011;13364;49.084;9.978;2022-09-03T02:40:51;2.92;;;1.88;;
25437;SDS011;13364;49.084;9.978;2022-09-03T02:43:23;2.97;;;1.60;;
25437;SDS011;13364;49.084;9.978;2022-09-03T02:46:16;3.00;;;1.88;;
25437;SDS011;13364;49.084;9.978;2022-09-03T02:48:48;3.67;;;2.10;;
25437;SDS011;13364;49.084;9.978;2022-09-03T02:51:15;5.18;;;1.90;;
25437;SDS011;13364;49.084;9.978;2022-09-03T02:53:42;3.00;;;1.77;;
25437;SDS011;13364;49.084;9.978;2022-09-03T02:56:10;2.30;;;2.10;;
25437;SDS011;13364;49.084;9.978;2022-09-03T02:58:37;2.53;;;2.03;;
25437;SDS011;13364;49.084;9.978;2022-09-03T03:01:04;2.38;;;1.70;;
25437;SDS011;13364;49.084;9.978;2022-09-03T03:03:32;2.70;;;2.13;;
25437;SDS011;13364;49.084;9.978;2022-09-03T03:06:03;2.33;;;1.95;;
25437;SDS011;13364;49.084;9.978;2022-09-03T03:08:32;1.90;;;1.70;;
25437;SDS011;13364;49.084;9.978;2022-09-03T03:11:00;1.90;;;1.77;;
25437;SDS011;13364;49.084;9.978;2022-09-03T03:13:28;4.00;;;2.08;;
25437;SDS011;13364;49.084;9.978;2022-09-03T03:15:59;3.90;;;2.00;;
25437;SDS011;13364;49.084;9.978;2022-09-03T03:18:31;2.10;;;1.90;;
25437;SDS011;13364;49.084;9.978;2022-09-03T03:21:06;4.07;;;2.13;;
25437;SDS011;13364;49.084;9.978;2022-09-03T03:23:35;2.10;;;1.90;;
25437;SDS011;13364;49.084;9.978;2022-09-03T03:26:04;4.22;;;2.10;;
25437;SDS011;13364;49.084;9.978;2022-09-03T03:28:33;2.10;;;1.88;;
25437;SDS011;13364;49.084;9.978;2022-09-03T03:31:04;3.05;;;1.73;;
25437;SDS011;13364;49.084;9.978;2022-09-03T03:33:32;2.53;;;2.00;;
25437;SDS011;13364;49.084;9.978;2022-09-03T03:36:03;3.72;;;2.00;;
25437;SDS011;13364;49.084;9.978;2022-09-03T03:38:32;2.05;;;1.83;;
25437;SDS011;13364;49.084;9.978;2022-09-03T03:41:05;2.20;;;1.92;;
25437;SDS011;13364;49.084;9.978;2022-09-03T03:43:33;2.60;;;1.90;;
25437;SDS011;13364;49.084;9.978;2022-09-03T03:46:00;1.88;;;1.77;;
25437;SDS011;13364;49.084;9.978;2022-09-03T03:48:27;2.97;;;2.22;;
25437;SDS011;13364;49.084;9.978;2022-09-03T03:50:54;2.67;;;2.17;;
25437;SDS011;13364;49.084;9.978;2022-09-03T03:53:25;2.80;;;1.80;;
25437;SDS011;13364;49.084;9.978;2022-09-03T03:55:56;2.05;;;1.85;;
25437;SDS011;13364;49.084;9.978;2022-09-03T03:58:26;2.13;;;1.90;;
25437;SDS011;13364;49.084;9.978;2022-09-03T04:00:55;3.33;;;1.90;;
25437;SDS011;13364;49.084;9.978;2022-09-03T04:03:29;2.60;;;1.70;;
25437;SDS011;13364;49.084;9.978;2022-09-03T04:05:56;2.53;;;2.22;;
25437;SDS011;13364;49.084;9.978;2022-09-03T04:08:25;2.47;;;1.83;;
25437;SDS011;13364;49.084;9.978;2022-09-03T04:10:53;5.25;;;2.13;;
25437;SDS011;13364;49.084;9.978;2022-09-03T04:13:36;2.83;;;1.85;;
25437;SDS011;13364;49.084;9.978;2022-09-03T04:16:07;3.30;;;2.00;;
25437;SDS011;13364;49.084;9.978;2022-09-03T04:18:39;4.85;;;2.00;;
25437;SDS011;13364;49.084;9.978;2022-09-03T04:21:15;2.10;;;1.90;;
25437;SDS011;13364;49.084;9.978;2022-09-03T04:23:45;4.65;;;2.53;;
25437;SDS011;13364;49.084;9.978;2022-09-03T04:26:15;2.70;;;1.95;;
25437;SDS011;13364;49.084;9.978;2022-09-03T04:28:43;2.63;;;1.80;;
25437;SDS011;13364;49.084;9.978;2022-09-03T04:31:12;2.90;;;2.00;;
25437;SDS011;13364;49.084;9.978;2022-09-03T04:33:40;3.25;;;2.13;;
25437;SDS011;13364;49.084;9.978;2022-09-03T04:36:12;2.05;;;1.85;;
25437;SDS011;13364;49.084;9.978;2022-09-03T04:38:40;4.07;;;2.25;;
25437;SDS011;13364;49.084;9.978;2022-09-03T04:41:09;3.90;;;2.63;;
25437;SDS011;13364;49.084;9.978;2022-09-03T04:43:38;3.65;;;2.20;;
25437;SDS011;13364;49.084;9.978;2022-09-03T04:46:09;5.15;;;2.45;;
25437;SDS011;13364;49.084;9.978;2022-09-03T04:48:46;2.55;;;2.35;;
25437;SDS011;13364;49.084;9.978;2022-09-03T04:51:14;2.35;;;2.10;;
25437;SDS011;13364;49.084;9.978;2022-09-03T04:53:44;2.27;;;2.07;;
25437;SDS011;13364;49.084;9.978;2022-09-03T04:56:13;3.70;;;2.00;;
25437;SDS011;13364;49.084;9.978;2022-09-03T04:58:45;1.98;;;1.80;;
25437;SDS011;13364;49.084;9.978;2022-09-03T05:01:17;2.83;;;1.90;;
25437;SDS011;13364;49.084;9.978;2022-09-03T05:03:46;2.20;;;2.00;;
25437;SDS011;13364;49.084;9.978;2022-09-03T05:06:14;2.63;;;2.10;;
25437;SDS011;13364;49.084;9.978;2022-09-03T05:08:49;2.42;;;2.22;;
25437;SDS011;13364;49.084;9.978;2022-09-03T05:11:17;3.40;;;2.20;;
25437;SDS011;13364;49.084;9.978;2022-09-03T05:13:48;4.20;;;2.10;;
25437;SDS011;13364;49.084;9.978;2022-09-03T05:16:16;4.60;;;2.45;;
25437;SDS011;13364;49.084;9.978;2022-09-03T05:18:45;5.50;;;2.30;;
25437;SDS011;13364;49.084;9.978;2022-09-03T05:21:13;4.28;;;2.33;;
25437;SDS011;13364;49.084;9.978;2022-09-03T05:23:43;5.47;;;2.63;;
25437;SDS011;13364;49.084;9.978;2022-09-03T05:26:16;5.25;;;2.38;;
25437;SDS011;13364;49.084;9.978;2022-09-03T05:28:54;2.85;;;2.10;;
25437;SDS011;13364;49.084;9.978;2022-09-03T05:37:20;3.22;;;2.22;;
25437;SDS011;13364;49.084;9.978;2022-09-03T05:39:48;2.78;;;1.85;;
25437;SDS011;13364;49.084;9.978;2022-09-03T05:42:16;2.00;;;1.88;;
25437;SDS011;13364;49.084;9.978;2022-09-03T05:44:43;2.35;;;2.15;;
25437;SDS011;13364;49.084;9.978;2022-09-03T05:47:10;2.20;;;2.00;;
25437;SDS011;13364;49.084;9.978;2022-09-03T05:49:37;2.97;;;2.03;;
25437;SDS011;13364;49.084;9.978;2022-09-03T05:52:05;2.40;;;2.20;;
25437;SDS011;13364;49.084;9.978;2022-09-03T05:54:32;3.33;;;2.28;;
25437;SDS011;13364;49.084;9.978;2022-09-03T05:56:59;3.20;;;2.10;;
25437;SDS011;13364;49.084;9.978;2022-09-03T05:59:26;2.40;;;2.20;;
25437;SDS011;13364;49.084;9.978;2022-09-03T06:01:53;3.53;;;2.38;;
25437;SDS011;13364;49.084;9.978;2022-09-03T06:04:25;3.05;;;2.35;;
25437;SDS011;13364;49.084;9.978;2022-09-03T06:06:52;3.05;;;2.40;;
25437;SDS011;13364;49.084;9.978;2022-09-03T06:09:21;10.93;;;2.60;;
25437;SDS011;13364;49.084;9.978;2022-09-03T06:11:49;3.17;;;2.28;;
25437;SDS011;13364;49.084;9.978;2022-09-03T06:14:18;2.53;;;2.20;;
25437;SDS011;13364;49.084;9.978;2022-09-03T06:16:46;7.00;;;2.13;;
25437;SDS011;13364;49.084;9.978;2022-09-03T06:19:15;2.53;;;2.33;;
25437;SDS011;13364;49.084;9.978;2022-09-03T06:21:42;4.03;;;2.25;;
25437;SDS011;13364;49.084;9.978;2022-09-03T06:24:12;2.40;;;2.20;;
25437;SDS011;13364;49.084;9.978;2022-09-03T06:26:43;2.75;;;2.47;;
25437;SDS011;13364;49.084;9.978;2022-09-03T06:29:12;4.00;;;2.17;;
25437;SDS011;13364;49.084;9.978;2022-09-03T06:31:39;2.58;;;2.03;;
25437;SDS011;13364;49.084;9.978;2022-09-03T06:34:06;5.07;;;2.22;;
25437;SDS011;13364;49.084;9.978;2022-09-03T06:36:33;6.82;;;2.50;;
25437;SDS011;13364;49.084;9.978;2022-09-03T06:39:00;3.08;;;2.30;;
25437;SDS011;13364;49.084;9.978;2022-09-03T06:41:29;4.07;;;2.20;;
25437;SDS011;13364;49.084;9.978;2022-09-03T06:44:03;2.80;;;2.30;;
25437;SDS011;13364;49.084;9.978;2022-09-03T06:46:34;4.72;;;2.70;;
25437;SDS011;13364;49.084;9.978;2022-09-03T06:49:04;3.28;;;2.30;;
25437;SDS011;13364;49.084;9.978;2022-09-03T06:51:32;4.43;;;2.22;;
25437;SDS011;13364;49.084;9.978;2022-09-03T06:54:00;4.15;;;2.20;;
25437;SDS011;13364;49.084;9.978;2022-09-03T06:56:32;2.63;;;2.00;;
25437;SDS011;13364;49.084;9.978;2022-09-03T06:59:06;2.40;;;2.20;;
25437;SDS011;13364;49.084;9.978;2022-09-03T07:01:37;5.88;;;2.65;;
25437;SDS011;13364;49.084;9.978;2022-09-03T07:04:11;2.83;;;2.40;;
25437;SDS011;13364;49.084;9.978;2022-09-03T07:06:42;3.92;;;2.30;;
25437;SDS011;13364;49.084;9.978;2022-09-03T07:09:10;4.00;;;2.47;;
25437;SDS011;13364;49.084;9.978;2022-09-03T07:11:38;3.28;;;2.10;;
25437;SDS011;13364;49.084;9.978;2022-09-03T07:14:13;2.45;;;2.08;;
25437;SDS011;13364;49.084;9.978;2022-09-03T07:16:42;4.30;;;2.50;;
25437;SDS011;13364;49.084;9.978;2022-09-03T07:19:09;3.25;;;2.38;;
25437;SDS011;13364;49.084;9.978;2022-09-03T07:21:39;4.47;;;2.47;;
25437;SDS011;13364;49.084;9.978;2022-09-03T07:24:16;4.47;;;2.30;;
25437;SDS011;13364;49.084;9.978;2022-09-03T07:26:44;3.83;;;2.40;;
25437;SDS011;13364;49.084;9.978;2022-09-03T07:29:12;3.63;;;2.30;;
25437;SDS011;13364;49.084;9.978;2022-09-03T07:31:42;8.50;;;2.63;;
25437;SDS011;13364;49.084;9.978;2022-09-03T07:34:10;3.17;;;2.70;;
25437;SDS011;13364;49.084;9.978;2022-09-03T07:36:40;4.93;;;2.85;;
25437;SDS011;13364;49.084;9.978;2022-09-03T07:39:09;3.10;;;2.50;;
25437;SDS011;13364;49.084;9.978;2022-09-03T07:41:37;3.13;;;2.40;;
25437;SDS011;13364;49.084;9.978;2022-09-03T07:44:08;3.28;;;2.97;;
25437;SDS011;13364;49.084;9.978;2022-09-03T07:46:36;5.00;;;2.83;;
25437;SDS011;13364;49.084;9.978;2022-09-03T07:49:05;3.38;;;2.85;;
25437;SDS011;13364;49.084;9.978;2022-09-03T07:51:35;3.95;;;2.70;;
25437;SDS011;13364;49.084;9.978;2022-09-03T07:54:05;3.65;;;2.45;;
25437;SDS011;13364;49.084;9.978;2022-09-03T07:56:39;3.30;;;3.00;;
25437;SDS011;13364;49.084;9.978;2022-09-03T07:59:07;3.65;;;2.50;;
25437;SDS011;13364;49.084;9.978;2022-09-03T08:01:35;2.85;;;2.55;;
25437;SDS011;13364;49.084;9.978;2022-09-03T08:04:06;3.40;;;2.65;;
25437;SDS011;13364;49.084;9.978;2022-09-03T08:06:36;3.10;;;2.80;;
25437;SDS011;13364;49.084;9.978;2022-09-03T08:09:05;3.00;;;2.70;;
25437;SDS011;13364;49.084;9.978;2022-09-03T08:11:35;3.65;;;2.72;;
25437;SDS011;13364;49.084;9.978;2022-09-03T08:14:04;4.25;;;3.08;;
25437;SDS011;13364;49.084;9.978;2022-09-03T08:16:34;3.65;;;3.17;;
25437;SDS011;13364;49.084;9.978;2022-09-03T08:19:03;3.28;;;2.70;;
25437;SDS011;13364;49.084;9.978;2022-09-03T08:21:31;2.70;;;2.50;;
25437;SDS011;13364;49.084;9.978;2022-09-03T08:23:58;2.75;;;2.55;;
25437;SDS011;13364;49.084;9.978;2022-09-03T08:26:28;5.43;;;2.90;;
25437;SDS011;13364;49.084;9.978;2022-09-03T08:28:57;2.65;;;2.45;;
25437;SDS011;13364;49.084;9.978;2022-09-03T08:31:25;3.95;;;2.90;;
25437;SDS011;13364;49.084;9.978;2022-09-03T08:33:53;3.42;;;2.80;;
25437;SDS011;13364;49.084;9.978;2022-09-03T08:36:23;3.77;;;2.80;;
25437;SDS011;13364;49.084;9.978;2022-09-03T08:41:28;4.50;;;3.03;;
25437;SDS011;13364;49.084;9.978;2022-09-03T08:46:59;2.95;;;2.63;;
25437;SDS011;13364;49.084;9.978;2022-09-03T08:49:40;2.67;;;2.13;;
25437;SDS011;13364;49.084;9.978;2022-09-03T08:52:35;3.83;;;2.45;;
25437;SDS011;13364;49.084;9.978;2022-09-03T08:58:03;2.80;;;2.60;;
25437;SDS011;13364;49.084;9.978;2022-09-03T09:15:57;2.70;;;2.42;;
25437;SDS011;13364;49.084;9.978;2022-09-03T09:18:55;4.07;;;2.78;;
25437;SDS011;13364;49.084;9.978;2022-09-03T09:21:45;6.43;;;3.22;;
25437;SDS011;13364;49.084;9.978;2022-09-03T09:24:25;3.33;;;2.85;;
25437;SDS011;13364;49.084;9.978;2022-09-03T09:26:58;4.82;;;2.75;;
25437;SDS011;13364;49.084;9.978;2022-09-03T09:29:32;2.78;;;2.58;;
25437;SDS011;13364;49.084;9.978;2022-09-03T09:32:01;2.50;;;2.30;;
25437;SDS011;13364;49.084;9.978;2022-09-03T09:34:34;5.73;;;2.93;;
25437;SDS011;13364;49.084;9.978;2022-09-03T09:37:10;3.20;;;2.80;;
25437;SDS011;13364;49.084;9.978;2022-09-03T09:39:39;4.75;;;2.85;;
25437;SDS011;13364;49.084;9.978;2022-09-03T09:42:20;3.90;;;3.50;;
25437;SDS011;13364;49.084;9.978;2022-09-03T09:52:18;3.53;;;2.90;;
25437;SDS011;13364;49.084;9.978;2022-09-03T09:54:51;9.95;;;3.40;;
25437;SDS011;13364;49.084;9.978;2022-09-03T09:57:21;4.20;;;2.70;;
25437;SDS011;13364;49.084;9.978;2022-09-03T09:59:49;3.95;;;3.13;;
25437;SDS011;13364;49.084;9.978;2022-09-03T10:10:00;7.10;;;2.83;;
25437;SDS011;13364;49.084;9.978;2022-09-03T10:12:43;4.47;;;2.90;;
25437;SDS011;13364;49.084;9.978;2022-09-03T10:15:18;3.03;;;2.83;;
25437;SDS011;13364;49.084;9.978;2022-09-03T10:20:29;3.72;;;2.97;;
25437;SDS011;13364;49.084;9.978;2022-09-03T10:25:46;3.88;;;3.00;;
25437;SDS011;13364;49.084;9.978;2022-09-03T10:28:23;3.90;;;2.95;;
25437;SDS011;13364;49.084;9.978;2022-09-03T10:31:02;3.50;;;3.20;;
25437;SDS011;13364;49.084;9.978;2022-09-03T10:33:53;3.20;;;2.90;;
25437;SDS011;13364;49.084;9.978;2022-09-03T10:36:27;3.55;;;3.25;;
25437;SDS011;13364;49.084;9.978;2022-09-03T10:51:35;3.13;;;2.75;;
25437;SDS011;13364;49.084;9.978;2022-09-03T11:00:07;3.28;;;2.80;;
25437;SDS011;13364;49.084;9.978;2022-09-03T11:12:36;5.97;;;2.83;;
25437;SDS011;13364;49.084;9.978;2022-09-03T11:15:10;2.92;;;2.63;;
25437;SDS011;13364;49.084;9.978;2022-09-03T11:17:53;3.13;;;2.83;;
25437;SDS011;13364;49.084;9.978;2022-09-03T11:20:43;3.30;;;3.00;;
25437;SDS011;13364;49.084;9.978;2022-09-03T11:23:12;4.18;;;2.75;;
25437;SDS011;13364;49.084;9.978;2022-09-03T11:25:42;3.13;;;2.77;;
25437;SDS011;13364;49.084;9.978;2022-09-03T11:33:44;3.15;;;2.90;;
25437;SDS011;13364;49.084;9.978;2022-09-03T11:36:23;3.92;;;2.80;;
25437;SDS011;13364;49.084;9.978;2022-09-03T11:38:57;3.95;;;2.60;;
25437;SDS011;13364;49.084;9.978;2022-09-03T11:45:10;3.45;;;3.15;;
25437;SDS011;13364;49.084;9.978;2022-09-03T11:47:41;4.22;;;2.60;;
25437;SDS011;13364;49.084;9.978;2022-09-03T11:52:50;3.97;;;2.60;;
25437;SDS011;13364;49.084;9.978;2022-09-03T11:55:32;2.95;;;2.65;;
25437;SDS011;13364;49.084;9.978;2022-09-03T11:58:22;2.58;;;2.35;;
25437;SDS011;13364;49.084;9.978;2022-09-03T12:01:13;3.20;;;2.90;;
25437;SDS011;13364;49.084;9.978;2022-09-03T12:03:52;3.08;;;2.78;;
25437;SDS011;13364;49.084;9.978;2022-09-03T12:06:30;5.20;;;3.10;;
25437;SDS011;13364;49.084;9.978;2022-09-03T12:17:51;3.30;;;3.00;;
25437;SDS011;13364;49.084;9.978;2022-09-03T12:20:39;4.25;;;2.83;;
25437;SDS011;13364;49.084;9.978;2022-09-03T12:23:09;4.57;;;3.40;;
25437;SDS011;13364;49.084;9.978;2022-09-03T12:25:43;3.42;;;3.08;;
25437;SDS011;13364;49.084;9.978;2022-09-03T12:28:15;3.58;;;2.60;;
25437;SDS011;13364;49.084;9.978;2022-09-03T12:30:49;4.20;;;3.17;;
25437;SDS011;13364;49.084;9.978;2022-09-03T12:33:22;2.97;;;2.75;;
25437;SDS011;13364;49.084;9.978;2022-09-03T12:35:55;3.80;;;3.10;;
25437;SDS011;13364;49.084;9.978;2022-09-03T12:38:25;2.75;;;2.55;;
25437;SDS011;13364;49.084;9.978;2022-09-03T12:40:54;4.28;;;2.90;;
25437;SDS011;13364;49.084;9.978;2022-09-03T12:43:47;2.97;;;2.58;;
25437;SDS011;13364;49.084;9.978;2022-09-03T12:46:21;3.38;;;2.72;;
25437;SDS011;13364;49.084;9.978;2022-09-03T12:49:02;3.42;;;2.97;;
25437;SDS011;13364;49.084;9.978;2022-09-03T12:52:01;3.50;;;2.70;;
25437;SDS011;13364;49.084;9.978;2022-09-03T12:54:35;2.88;;;2.58;;
25437;SDS011;13364;49.084;9.978;2022-09-03T12:57:28;2.90;;;2.70;;
25437;SDS011;13364;49.084;9.978;2022-09-03T12:59:59;3.28;;;2.80;;
25437;SDS011;13364;49.084;9.978;2022-09-03T13:05:28;3.53;;;2.58;;
25437;SDS011;13364;49.084;9.978;2022-09-03T13:08:03;5.30;;;2.65;;
25437;SDS011;13364;49.084;9.978;2022-09-03T13:10:35;3.33;;;3.00;;
25437;SDS011;13364;49.084;9.978;2022-09-03T13:13:21;3.15;;;2.85;;
25437;SDS011;13364;49.084;9.978;2022-09-03T13:21:35;2.78;;;2.47;;
25437;SDS011;13364;49.084;9.978;2022-09-03T13:24:33;6.18;;;3.33;;
25437;SDS011;13364;49.084;9.978;2022-09-03T13:27:21;5.43;;;2.83;;
25437;SDS011;13364;49.084;9.978;2022-09-03T13:49:36;2.80;;;2.50;;
25437;SDS011;13364;49.084;9.978;2022-09-03T13:55:13;3.13;;;2.83;;
25437;SDS011;13364;49.084;9.978;2022-09-03T14:01:00;6.00;;;2.95;;
25437;SDS011;13364;49.084;9.978;2022-09-03T14:03:31;2.80;;;2.60;;
25437;SDS011;13364;49.084;9.978;2022-09-03T14:06:04;3.88;;;2.65;;
25437;SDS011;13364;49.084;9.978;2022-09-03T14:16:48;2.83;;;2.35;;
25437;SDS011;13364;49.084;9.978;2022-09-03T14:22:51;5.07;;;2.42;;
25437;SDS011;13364;49.084;9.978;2022-09-03T14:25:28;3.20;;;2.90;;
25437;SDS011;13364;49.084;9.978;2022-09-03T14:28:11;4.72;;;3.08;;
25437;SDS011;13364;49.084;9.978;2022-09-03T14:30:42;3.03;;;2.50;;
25437;SDS011;13364;49.084;9.978;2022-09-03T14:42:21;3.90;;;2.60;;
25437;SDS011;13364;49.084;9.978;2022-09-03T14:45:01;3.53;;;2.50;;
25437;SDS011;13364;49.084;9.978;2022-09-03T15:07:17;2.40;;;2.20;;
25437;SDS011;13364;49.084;9.978;2022-09-03T15:25:03;2.92;;;1.83;;
25437;SDS011;13364;49.084;9.978;2022-09-03T15:27:55;3.00;;;2.00;;
25437;SDS011;13364;49.084;9.978;2022-09-03T15:30:33;2.33;;;2.13;;
25437;SDS011;13364;49.084;9.978;2022-09-03T15:38:58;2.40;;;2.20;;
25437;SDS011;13364;49.084;9.978;2022-09-03T15:41:45;3.90;;;2.55;;
25437;SDS011;13364;49.084;9.978;2022-09-03T15:44:47;2.58;;;2.38;;
25437;SDS011;13364;49.084;9.978;2022-09-03T15:47:40;2.22;;;2.00;;
25437;SDS011;13364;49.084;9.978;2022-09-03T15:50:36;2.55;;;1.80;;
25437;SDS011;13364;49.084;9.978;2022-09-03T15:56:13;1.73;;;1.63;;
25437;SDS011;13364;49.084;9.978;2022-09-03T15:59:24;2.00;;;1.83;;
25437;SDS011;13364;49.084;9.978;2022-09-03T16:01:53;3.78;;;1.95;;
25437;SDS011;13364;49.084;9.978;2022-09-03T16:10:10;4.10;;;1.67;;
25437;SDS011;13364;49.084;9.978;2022-09-03T16:16:08;2.97;;;2.10;;
25437;SDS011;13364;49.084;9.978;2022-09-03T16:18:42;2.55;;;1.80;;
25437;SDS011;13364;49.084;9.978;2022-09-03T16:23:57;2.22;;;2.00;;
25437;SDS011;13364;49.084;9.978;2022-09-03T16:26:29;2.28;;;1.80;;
25437;SDS011;13364;49.084;9.978;2022-09-03T16:29:07;2.45;;;1.55;;
25437;SDS011;13364;49.084;9.978;2022-09-03T16:34:14;4.45;;;1.67;;
25437;SDS011;13364;49.084;9.978;2022-09-03T16:39:36;5.88;;;1.88;;
25437;SDS011;13364;49.084;9.978;2022-09-03T16:56:12;2.40;;;1.55;;
25437;SDS011;13364;49.084;9.978;2022-09-03T16:58:56;1.73;;;1.58;;
25437;SDS011;13364;49.084;9.978;2022-09-03T17:28:00;2.03;;;1.48;;
25437;SDS011;13364;49.084;9.978;2022-09-03T17:30:57;3.05;;;1.45;;
25437;SDS011;13364;49.084;9.978;2022-09-03T17:39:15;2.40;;;1.65;;
25437;SDS011;13364;49.084;9.978;2022-09-03T17:42:04;2.83;;;1.77;;
25437;SDS011;13364;49.084;9.978;2022-09-03T17:49:57;6.05;;;1.70;;
25437;SDS011;13364;49.084;9.978;2022-09-03T17:52:43;1.38;;;1.27;;
25437;SDS011;13364;49.084;9.978;2022-09-03T17:55:31;1.60;;;1.40;;
25437;SDS011;13364;49.084;9.978;2022-09-03T18:03:59;1.80;;;1.48;;
25437;SDS011;13364;49.084;9.978;2022-09-03T18:09:11;1.60;;;1.50;;
25437;SDS011;13364;49.084;9.978;2022-09-03T18:18:02;2.05;;;1.70;;
25437;SDS011;13364;49.084;9.978;2022-09-03T18:20:44;2.55;;;1.45;;
25437;SDS011;13364;49.084;9.978;2022-09-03T18:30:35;2.08;;;1.80;;
25437;SDS011;13364;49.084;9.978;2022-09-03T18:33:24;4.05;;;2.00;;
25437;SDS011;13364;49.084;9.978;2022-09-03T18:38:59;2.20;;;2.00;;
25437;SDS011;13364;49.084;9.978;2022-09-03T18:42:21;3.78;;;2.10;;
25437;SDS011;13364;49.084;9.978;2022-09-03T18:48:59;3.15;;;2.20;;
25437;SDS011;13364;49.084;9.978;2022-09-03T19:01:03;2.50;;;2.30;;
25437;SDS011;13364;49.084;9.978;2022-09-03T19:04:14;2.30;;;2.10;;
25437;SDS011;13364;49.084;9.978;2022-09-03T19:07:46;3.67;;;2.20;;
25437;SDS011;13364;49.084;9.978;2022-09-03T19:10:42;2.42;;;2.05;;
25437;SDS011;13364;49.084;9.978;2022-09-03T19:13:45;2.42;;;2.00;;
25437;SDS011;13364;49.084;9.978;2022-09-03T19:20:13;3.55;;;2.42;;
25437;SDS011;13364;49.084;9.978;2022-09-03T19:23:03;2.15;;;1.95;;
25437;SDS011;13364;49.084;9.978;2022-09-03T19:25:50;2.78;;;2.30;;
25437;SDS011;13364;49.084;9.978;2022-09-03T19:28:39;3.75;;;2.33;;
25437;SDS011;13364;49.084;9.978;2022-09-03T19:31:44;2.92;;;2.63;;
25437;SDS011;13364;49.084;9.978;2022-09-03T19:38:03;1.80;;;1.70;;
25437;SDS011;13364;49.084;9.978;2022-09-03T19:41:21;2.72;;;1.95;;
25437;SDS011;13364;49.084;9.978;2022-09-03T19:44:26;4.78;;;2.00;;
25437;SDS011;13364;49.084;9.978;2022-09-03T19:47:54;2.95;;;2.05;;
25437;SDS011;13364;49.084;9.978;2022-09-03T19:51:07;3.25;;;2.00;;
25437;SDS011;13364;49.084;9.978;2022-09-03T19:57:05;2.08;;;1.85;;
25437;SDS011;13364;49.084;9.978;2022-09-03T19:59:50;3.42;;;1.90;;
25437;SDS011;13364;49.084;9.978;2022-09-03T20:02:39;2.10;;;1.90;;
25437;SDS011;13364;49.084;9.978;2022-09-03T20:05:26;4.50;;;2.00;;
25437;SDS011;13364;49.084;9.978;2022-09-03T20:08:12;2.17;;;1.80;;
25437;SDS011;13364;49.084;9.978;2022-09-03T20:11:01;3.00;;;2.17;;
25437;SDS011;13364;49.084;9.978;2022-09-03T20:13:30;3.28;;;2.00;;
25437;SDS011;13364;49.084;9.978;2022-09-03T20:24:47;2.58;;;2.00;;
25437;SDS011;13364;49.084;9.978;2022-09-03T20:27:35;3.67;;;2.53;;
25437;SDS011;13364;49.084;9.978;2022-09-03T20:30:17;2.97;;;2.40;;
25437;SDS011;13364;49.084;9.978;2022-09-03T20:32:58;4.47;;;2.50;;
25437;SDS011;13364;49.084;9.978;2022-09-03T20:52:07;15.68;;;6.47;;
25437;SDS011;13364;49.084;9.978;2022-09-03T21:00:45;46.15;;;17.00;;
25437;SDS011;13364;49.084;9.978;2022-09-03T21:12:52;5.80;;;3.50;;
25437;SDS011;13364;49.084;9.978;2022-09-03T21:14:57;6.22;;;3.88;;
25437;SDS011;13364;49.084;9.978;2022-09-03T21:23:23;4.60;;;4.20;;
25437;SDS011;13364;49.084;9.978;2022-09-03T21:26:05;7.10;;;3.90;;
25437;SDS011;13364;49.084;9.978;2022-09-03T21:28:35;5.55;;;3.67;;
25437;SDS011;13364;49.084;9.978;2022-09-03T21:31:14;5.57;;;3.38;;
25437;SDS011;13364;49.084;9.978;2022-09-03T21:33:54;5.10;;;3.33;;
25437;SDS011;13364;49.084;9.978;2022-09-03T21:36:27;4.63;;;3.10;;
25437;SDS011;13364;49.084;9.978;2022-09-03T21:39:02;3.15;;;2.75;;
25437;SDS011;13364;49.084;9.978;2022-09-03T21:41:33;3.58;;;2.65;;
25437;SDS011;13364;49.084;9.978;2022-09-03T21:44:17;3.13;;;2.25;;
25437;SDS011;13364;49.084;9.978;2022-09-03T21:47:00;3.03;;;2.65;;
25437;SDS011;13364;49.084;9.978;2022-09-03T21:49:34;3.63;;;2.55;;
25437;SDS011;13364;49.084;9.978;2022-09-03T21:52:32;3.03;;;2.50;;
25437;SDS011;13364;49.084;9.978;2022-09-03T21:55:18;3.38;;;2.25;;
25437;SDS011;13364;49.084;9.978;2022-09-03T21:57:51;3.40;;;2.45;;
25437;SDS011;13364;49.084;9.978;2022-09-03T22:04:03;3.13;;;2.78;;
25437;SDS011;13364;49.084;9.978;2022-09-03T22:13:12;3.90;;;3.05;;
25437;SDS011;13364;49.084;9.978;2022-09-03T22:15:44;4.32;;;3.53;;
25437;SDS011;13364;49.084;9.978;2022-09-03T22:18:25;5.13;;;3.38;;
25437;SDS011;13364;49.084;9.978;2022-09-03T22:20:58;5.97;;;3.95;;
25437;SDS011;13364;49.084;9.978;2022-09-03T22:26:44;4.05;;;3.17;;
25437;SDS011;13364;49.084;9.978;2022-09-03T22:29:26;4.32;;;3.35;;
25437;SDS011;13364;49.084;9.978;2022-09-03T22:35:14;4.55;;;3.90;;
25437;SDS011;13364;49.084;9.978;2022-09-03T22:42:27;6.78;;;4.65;;
25437;SDS011;13364;49.084;9.978;2022-09-03T22:47:53;6.18;;;4.53;;
25437;SDS011;13364;49.084;9.978;2022-09-03T22:56:11;4.75;;;4.10;;
25437;SDS011;13364;49.084;9.978;2022-09-03T23:01:29;4.80;;;4.10;;
25437;SDS011;13364;49.084;9.978;2022-09-03T23:04:16;7.63;;;4.38;;
25437;SDS011;13364;49.084;9.978;2022-09-03T23:06:54;4.35;;;3.83;;
25437;SDS011;13364;49.084;9.978;2022-09-03T23:09:26;8.95;;;5.13;;
25437;SDS011;13364;49.084;9.978;2022-09-03T23:11:59;21.88;;;9.77;;
25437;SDS011;13364;49.084;9.978;2022-09-03T23:14:42;26.45;;;11.02;;
25437;SDS011;13364;49.084;9.978;2022-09-03T23:17:18;20.30;;;8.98;;
25437;SDS011;13364;49.084;9.978;2022-09-03T23:20:39;15.13;;;6.90;;
25437;SDS011;13364;49.084;9.978;2022-09-03T23:22:51;8.55;;;5.30;;
25437;SDS011;13364;49.084;9.978;2022-09-03T23:25:29;11.23;;;5.63;;